Time;durP1;ratioP1;P1;durP2;ratioP2;P2;SDS_P1;SDS_P2;PMS_P1;PMS_P2;Temp;Humidity;BMP_temperature;BMP_pressure;BME280_temperature;BME280_humidity;BME280_pressure;Samples;Min_cycle;Max_cycle;Signal;HPM_P1;HPM_P2
2023/06/12 00:01:12;;;;;;;;;;;20.20;92.40;;;;;;5032262;28;19975;-70
2023/06/12 00:06:15;;;;;;;;;;;20.20;92.40;;;;;;5074239;22;19924;-70
2023/06/12 00:08:41;;;;;;;;;;;20.20;92.40;;;;;;5051870;28;19925;-70
2023/06/12 00:11:09;;;;;;;;;;;20.10;92.60;;;;;;5052316;28;20277;-70
2023/06/12 00:13:41;;;;;;;;;;;20.10;92.40;;;;;;5050742;28;19925;-70
2023/06/12 00:16:07;;;;;;;;;;;20.20;92.40;;;;;;5052229;28;20039;-70
2023/06/12 00:18:33;;;;;;;;;;;20.20;92.30;;;;;;5053042;28;20062;-70
2023/06/12 00:20:58;;;;;;;;;;;20.20;92.40;;;;;;5050600;28;19925;-70
2023/06/12 00:23:24;;;;;;;;;;;20.20;92.30;;;;;;5051047;28;19971;-70
2023/06/12 00:25:50;;;;;;;;;;;20.20;92.40;;;;;;5050738;28;20022;-70
2023/06/12 00:28:15;;;;;;;;;;;20.20;92.10;;;;;;5051849;28;19929;-70
2023/06/12 00:30:44;;;;;;;;;;;20.20;92.10;;;;;;5051546;28;19933;-70
2023/06/12 00:33:12;;;;;;;;;;;20.20;92.20;;;;;;5051374;28;19931;-70
2023/06/12 00:35:38;;;;;;;;;;;20.20;92.30;;;;;;5050255;28;19925;-70
2023/06/12 00:38:06;;;;;;;;;;;20.10;92.50;;;;;;5051114;28;19965;-70
2023/06/12 00:40:31;;;;;;;;;;;20.10;92.30;;;;;;5051775;28;20296;-70
2023/06/12 00:43:08;;;;;;;;;;;20.10;92.50;;;;;;5053174;28;19931;-69
2023/06/12 00:45:35;;;;;;;;;;;21.20;92.90;;;;;;5056463;28;19947;-70
2023/06/12 00:48:04;;;;;;;;;;;19.90;92.60;;;;;;5057984;28;19925;-70
2023/06/12 00:50:30;;;;;;;;;;;19.90;92.70;;;;;;5054539;28;19972;-70
2023/06/12 00:52:59;;;;;;;;;;;19.90;92.70;;;;;;5056420;28;19924;-71
2023/06/12 00:55:25;;;;;;;;;;;19.80;92.80;;;;;;5054461;28;19932;-71
2023/06/12 00:57:51;;;;;;;;;;;19.80;92.90;;;;;;5056072;28;19925;-70
2023/06/12 01:00:17;;;;;;;;;;;19.70;92.90;;;;;;5056212;28;20360;-71
2023/06/12 01:02:48;;;;;;;;;;;19.70;93.30;;;;;;5070106;28;19956;-71
2023/06/12 01:05:16;;;;;;;;;;;19.70;93.50;;;;;;5053859;28;19932;-71
2023/06/12 01:07:51;;;;;;;;;;;19.70;93.50;;;;;;5055226;28;19928;-71
2023/06/12 01:10:24;;;;;;;;;;;19.60;93.70;;;;;;5055291;28;20285;-71
2023/06/12 01:12:50;;;;;;;;;;;19.50;94.10;;;;;;5055244;28;19924;-71
2023/06/12 01:15:16;;;;;;;;;;;19.40;94.20;;;;;;5056421;28;19950;-71
2023/06/12 01:17:41;;;;;;;;;;;19.40;94.30;;;;;;5055510;28;20337;-71
2023/06/12 01:20:11;;;;;;;;;;;19.30;94.50;;;;;;5054835;28;19928;-71
2023/06/12 01:22:44;;;;;;;;;;;19.30;94.40;;;;;;5055714;28;19931;-71
2023/06/12 01:25:19;;;;;;;;;;;19.20;94.40;;;;;;5055227;28;20021;-71
2023/06/12 01:28:00;;;;;;;;;;;19.20;94.70;;;;;;5054486;28;20336;-70
2023/06/12 01:30:32;;;;;;;;;;;19.10;94.70;;;;;;5055926;28;20403;-69
2023/06/12 01:33:02;;;;;;;;;;;19.00;95.00;;;;;;5055053;28;20034;-70
2023/06/12 01:35:30;;;;;;;;;;;18.90;94.90;;;;;;5034643;28;19929;-69
2023/06/12 01:38:22;;;;;;;;;;;18.90;94.80;;;;;;5033735;28;19936;-70
2023/06/12 01:40:48;;;;;;;;;;;18.80;95.30;;;;;;5034176;28;20377;-69
2023/06/12 01:43:14;;;;;;;;;;;18.80;95.70;;;;;;5051275;28;19925;-69
2023/06/12 01:45:40;;;;;;;;;;;18.70;95.30;;;;;;5053556;28;19932;-69
2023/06/12 01:48:08;;;;;;;;;;;18.60;95.70;;;;;;5055129;28;19929;-70
2023/06/12 01:50:34;;;;;;;;;;;18.50;96.30;;;;;;5054899;28;19987;-69
2023/06/12 01:52:59;;;;;;;;;;;18.50;96.00;;;;;;5054371;28;20011;-69
2023/06/12 01:55:25;;;;;;;;;;;18.40;96.10;;;;;;5054002;28;19924;-69
2023/06/12 01:57:51;;;;;;;;;;;18.30;96.50;;;;;;5054756;28;19955;-69
2023/06/12 02:00:17;;;;;;;;;;;18.30;96.50;;;;;;5054471;28;19979;-69
2023/06/12 02:02:45;;;;;;;;;;;18.20;96.50;;;;;;5053801;28;19978;-69
2023/06/12 02:05:14;;;;;;;;;;;18.10;96.30;;;;;;5053301;28;19990;-69
2023/06/12 02:07:46;;;;;;;;;;;18.10;96.40;;;;;;5052583;28;20288;-69
2023/06/12 02:10:11;;;;;;;;;;;18.00;96.30;;;;;;5053133;28;20396;-69
2023/06/12 02:12:37;;;;;;;;;;;18.00;96.50;;;;;;5053589;28;19925;-69
2023/06/12 02:15:02;;;;;;;;;;;17.90;97.10;;;;;;5052753;28;19921;-69
2023/06/12 02:17:28;;;;;;;;;;;17.80;97.20;;;;;;5054312;28;19932;-69
2023/06/12 02:19:55;;;;;;;;;;;17.80;96.80;;;;;;5052962;28;20030;-69
2023/06/12 02:22:21;;;;;;;;;;;17.70;97.50;;;;;;5053830;28;19925;-69
2023/06/12 02:24:47;;;;;;;;;;;17.60;97.70;;;;;;5053521;28;19931;-69
2023/06/12 02:27:12;;;;;;;;;;;17.60;97.60;;;;;;5052760;28;19928;-69
2023/06/12 02:29:38;;;;;;;;;;;17.60;97.70;;;;;;5053068;28;19924;-69
2023/06/12 02:32:04;;;;;;;;;;;17.50;96.90;;;;;;5052953;28;19976;-69
2023/06/12 02:34:29;;;;;;;;;;;17.50;97.90;;;;;;5053960;28;19971;-69
2023/06/12 02:36:55;;;;;;;;;;;17.40;97.70;;;;;;5052167;28;20003;-68
2023/06/12 02:39:21;;;;;;;;;;;17.40;97.50;;;;;;5053178;28;20071;-69
2023/06/12 02:41:47;;;;;;;;;;;17.30;98.20;;;;;;5052627;28;20002;-69
2023/06/12 02:44:13;;;;;;;;;;;17.30;97.80;;;;;;5054199;28;19925;-69
2023/06/12 02:46:53;;;;;;;;;;;17.30;98.10;;;;;;5054362;28;19932;-69
2023/06/12 02:49:19;;;;;;;;;;;17.20;98.00;;;;;;5038699;28;19925;-69
2023/06/12 02:51:45;;;;;;;;;;;17.10;97.80;;;;;;5052808;28;19925;-69
2023/06/12 02:54:11;;;;;;;;;;;17.10;98.60;;;;;;5053472;28;19925;-69
2023/06/12 02:56:37;;;;;;;;;;;17.10;98.60;;;;;;5053740;28;19932;-69
2023/06/12 02:59:03;;;;;;;;;;;17.10;98.60;;;;;;5052648;28;20265;-69
2023/06/12 03:01:29;;;;;;;;;;;17.10;98.90;;;;;;5052696;28;20407;-69
2023/06/12 03:03:56;;;;;;;;;;;17.10;98.70;;;;;;5051877;28;19931;-69
2023/06/12 03:06:26;;;;;;;;;;;17.00;99.00;;;;;;5051846;28;20397;-69
2023/06/12 03:08:52;;;;;;;;;;;17.10;98.70;;;;;;5052483;28;19935;-70
2023/06/12 03:11:21;;;;;;;;;;;17.00;98.90;;;;;;5052725;28;19925;-69
2023/06/12 03:13:52;;;;;;;;;;;17.10;98.80;;;;;;5048405;28;20297;-69
2023/06/12 03:16:20;;;;;;;;;;;17.00;99.20;;;;;;5031952;28;20003;-69
2023/06/12 03:18:46;;;;;;;;;;;17.00;99.20;;;;;;5033628;28;20384;-69
2023/06/12 03:21:11;;;;;;;;;;;16.90;99.10;;;;;;5033164;28;19929;-69
2023/06/12 03:23:37;;;;;;;;;;;16.90;99.50;;;;;;5044416;28;19932;-69
2023/06/12 03:26:04;;;;;;;;;;;16.80;99.90;;;;;;5053196;28;19972;-69
2023/06/12 03:28:29;;;;;;;;;;;16.80;99.90;;;;;;5053465;28;19974;-69
2023/06/12 03:30:55;;;;;;;;;;;16.70;99.90;;;;;;5052667;28;20019;-69
2023/06/12 03:33:20;;;;;;;;;;;16.70;99.90;;;;;;5053060;28;19928;-69
2023/06/12 03:35:46;;;;;;;;;;;16.60;99.90;;;;;;5053008;28;19925;-69
2023/06/12 03:38:12;;;;;;;;;;;16.60;99.90;;;;;;5052071;28;19925;-69
2023/06/12 03:40:37;;;;;;;;;;;16.50;99.90;;;;;;5053129;28;20347;-68
2023/06/12 03:43:03;;;;;;;;;;;16.50;99.90;;;;;;5053194;28;19924;-69
2023/06/12 03:45:28;;;;;;;;;;;16.40;99.90;;;;;;5051397;28;19931;-69
2023/06/12 03:47:54;;;;;;;;;;;16.40;99.90;;;;;;5051192;28;19933;-69
2023/06/12 03:50:22;;;;;;;;;;;16.40;99.90;;;;;;5052694;28;19925;-69
2023/06/12 03:52:47;;;;;;;;;;;16.40;99.90;;;;;;5052549;28;19931;-70
2023/06/12 03:55:13;;;;;;;;;;;16.40;99.90;;;;;;5051614;28;20019;-69
2023/06/12 03:57:38;;;;;;;;;;;16.40;99.90;;;;;;5069592;28;19960;-69
2023/06/12 04:00:05;;;;;;;;;;;16.40;99.90;;;;;;5056026;28;19925;-69
2023/06/12 04:02:30;;;;;;;;;;;16.40;99.90;;;;;;5056641;28;19925;-69
2023/06/12 04:04:56;;;;;;;;;;;16.40;99.90;;;;;;5055878;28;20023;-69
2023/06/12 04:07:22;;;;;;;;;;;16.40;99.90;;;;;;5051128;28;20019;-69
2023/06/12 04:43:27;;;;;;;;;;;16.60;99.90;;;;;;5140332;22;19979;-70
2023/06/12 04:45:53;;;;;;;;;;;16.70;99.90;;;;;;5020953;28;19937;-70
2023/06/12 04:48:19;;;;;;;;;;;16.70;99.90;;;;;;5016355;28;20389;-70
2023/06/12 04:50:48;;;;;;;;;;;16.70;99.90;;;;;;5003644;28;19998;-71
2023/06/12 04:53:32;;;;;;;;;;;16.70;99.90;;;;;;5019288;28;19968;-71
2023/06/12 04:55:58;;;;;;;;;;;16.70;99.90;;;;;;5028264;28;19932;-71
2023/06/12 04:58:26;;;;;;;;;;;16.80;99.90;;;;;;5038197;28;20030;-71
2023/06/12 05:00:55;;;;;;;;;;;16.90;99.90;;;;;;5050102;28;19929;-71
2023/06/12 05:03:21;;;;;;;;;;;16.90;99.90;;;;;;5033037;28;20404;-71
2023/06/12 05:05:47;;;;;;;;;;;16.90;99.90;;;;;;5032370;28;19933;-70
2023/06/12 05:08:13;;;;;;;;;;;17.00;99.90;;;;;;5018308;28;19970;-70
2023/06/12 05:10:39;;;;;;;;;;;17.00;99.90;;;;;;5035547;28;19933;-71
2023/06/12 05:13:05;;;;;;;;;;;17.00;99.90;;;;;;5020544;28;19939;-70
2023/06/12 05:15:30;;;;;;;;;;;17.10;99.90;;;;;;5037618;28;19933;-74
2023/06/12 05:17:56;;;;;;;;;;;17.10;99.90;;;;;;5042517;28;19933;-69
2023/06/12 05:20:21;;;;;;;;;;;17.20;99.90;;;;;;5017603;28;19925;-70
2023/06/12 05:22:47;;;;;;;;;;;17.20;99.90;;;;;;5019017;28;19932;-72
2023/06/12 05:25:13;;;;;;;;;;;17.30;99.90;;;;;;5035268;28;19932;-74
2023/06/12 05:27:38;;;;;;;;;;;17.30;99.90;;;;;;5018035;28;19932;-71
2023/06/12 05:30:06;;;;;;;;;;;17.40;99.90;;;;;;5034921;28;19929;-75
2023/06/12 05:32:31;;;;;;;;;;;17.40;99.90;;;;;;5034872;28;19933;-72
2023/06/12 05:34:57;;;;;;;;;;;17.50;99.90;;;;;;5017826;28;19925;-73
2023/06/12 05:37:25;;;;;;;;;;;17.60;99.90;;;;;;5034093;28;19929;-77
2023/06/12 05:39:52;;;;;;;;;;;17.60;99.90;;;;;;5028088;28;19930;-71
2023/06/12 05:42:20;;;;;;;;;;;17.70;99.90;;;;;;5000059;28;19926;-74
2023/06/12 05:44:46;;;;;;;;;;;17.80;99.90;;;;;;5050952;28;19931;-73
2023/06/12 05:47:15;;;;;;;;;;;17.80;99.90;;;;;;5037157;28;20380;-72
2023/06/12 05:49:41;;;;;;;;;;;17.90;99.90;;;;;;5036358;28;19932;-73
2023/06/12 05:52:07;;;;;;;;;;;18.00;99.90;;;;;;5053079;28;20304;-71
2023/06/12 05:54:32;;;;;;;;;;;18.00;99.90;;;;;;5018180;28;20365;-70
2023/06/12 05:56:58;;;;;;;;;;;18.10;99.90;;;;;;5016481;28;20012;-71
2023/06/12 05:59:24;;;;;;;;;;;18.20;99.90;;;;;;5033316;28;20343;-71
2023/06/12 06:01:49;;;;;;;;;;;18.70;99.90;;;;;;5012990;28;19996;-71
2023/06/12 06:04:16;;;;;;;;;;;18.40;99.90;;;;;;5013286;28;19929;-72
2023/06/12 06:06:42;;;;;;;;;;;18.40;99.90;;;;;;5030479;28;19932;-71
2023/06/12 06:09:08;;;;;;;;;;;18.50;99.90;;;;;;5028047;28;20047;-71
2023/06/12 06:11:33;;;;;;;;;;;18.60;99.90;;;;;;5033044;28;20573;-71
2023/06/12 06:14:01;;;;;;;;;;;18.70;99.90;;;;;;5047612;28;20331;-71
2023/06/12 06:16:26;;;;;;;;;;;18.70;99.90;;;;;;5051412;28;19925;-71
2023/06/12 06:18:52;;;;;;;;;;;18.80;99.90;;;;;;5050978;28;19938;-71
2023/06/12 06:21:18;;;;;;;;;;;18.90;99.90;;;;;;5034796;28;20372;-71
2023/06/12 06:23:43;;;;;;;;;;;19.00;99.90;;;;;;5051205;28;19925;-71
2023/06/12 06:26:09;;;;;;;;;;;19.00;99.90;;;;;;5018818;28;20425;-72
2023/06/12 06:28:35;;;;;;;;;;;19.10;99.90;;;;;;5051596;28;19928;-72
2023/06/12 06:31:00;;;;;;;;;;;19.20;99.90;;;;;;5036105;28;20066;-72
2023/06/12 06:33:26;;;;;;;;;;;19.30;99.90;;;;;;5053590;28;19924;-72
2023/06/12 06:35:52;;;;;;;;;;;19.40;99.90;;;;;;5017146;28;19925;-72
2023/06/12 06:38:21;;;;;;;;;;;19.40;99.90;;;;;;5016880;28;19932;-72
2023/06/12 06:40:49;;;;;;;;;;;19.50;99.90;;;;;;5016335;28;19925;-72
2023/06/12 06:43:15;;;;;;;;;;;19.60;99.90;;;;;;5033801;28;20412;-71
2023/06/12 06:45:40;;;;;;;;;;;19.70;99.90;;;;;;5034157;28;19929;-72
2023/06/12 06:48:07;;;;;;;;;;;19.70;99.90;;;;;;5032668;28;19971;-71
2023/06/12 06:50:32;;;;;;;;;;;19.80;99.90;;;;;;5048982;28;19925;-71
2023/06/12 06:52:58;;;;;;;;;;;19.90;99.90;;;;;;5054075;28;20342;-72
2023/06/12 06:55:24;;;;;;;;;;;20.00;99.90;;;;;;5053497;28;20372;-72
2023/06/12 06:57:54;;;;;;;;;;;20.10;99.90;;;;;;5053117;28;20474;-72
2023/06/12 07:00:21;;;;;;;;;;;20.20;99.90;;;;;;5022519;28;19932;-71
2023/06/12 07:02:47;;;;;;;;;;;20.30;99.90;;;;;;5050425;28;19987;-72
2023/06/12 07:05:16;;;;;;;;;;;20.20;99.90;;;;;;5044950;28;20389;-72
2023/06/12 07:07:43;;;;;;;;;;;20.50;99.90;;;;;;5016225;28;19940;-71
2023/06/12 07:10:08;;;;;;;;;;;20.60;99.90;;;;;;5015548;28;19932;-71
2023/06/12 07:12:34;;;;;;;;;;;20.70;99.90;;;;;;5016614;28;19925;-71
2023/06/12 07:15:00;;;;;;;;;;;20.90;99.90;;;;;;5019540;28;19925;-71
2023/06/12 07:17:28;;;;;;;;;;;21.10;99.90;;;;;;5059233;28;20015;-71
2023/06/12 07:19:54;;;;;;;;;;;21.40;99.90;;;;;;5059548;28;19925;-72
2023/06/12 07:22:22;;;;;;;;;;;22.20;99.90;;;;;;5056788;28;19935;-72
2023/06/12 07:24:48;;;;;;;;;;;23.10;99.70;;;;;;5035543;28;19955;-72
2023/06/12 07:27:16;;;;;;;;;;;23.90;98.30;;;;;;5036542;28;19924;-72
2023/06/12 07:29:42;;;;;;;;;;;24.60;97.10;;;;;;5035174;28;20289;-72
2023/06/12 07:32:09;;;;;;;;;;;25.20;95.60;;;;;;5033090;28;19951;-72
2023/06/12 07:34:35;;;;;;;;;;;25.80;95.20;;;;;;5033625;28;20431;-71
2023/06/12 07:37:02;;;;;;;;;;;26.40;94.90;;;;;;5032634;28;19925;-71
2023/06/12 07:39:30;;;;;;;;;;;26.80;93.80;;;;;;5032948;28;20305;-72
2023/06/12 07:41:56;;;;;;;;;;;27.30;93.30;;;;;;5027523;28;19943;-72
2023/06/12 07:44:22;;;;;;;;;;;27.60;93.10;;;;;;5034607;28;19925;-71
2023/06/12 07:46:47;;;;;;;;;;;28.00;92.80;;;;;;5034413;28;19932;-71
2023/06/12 07:49:16;;;;;;;;;;;28.30;91.90;;;;;;5035050;28;20393;-71
2023/06/12 07:51:41;;;;;;;;;;;28.60;92.30;;;;;;5034795;28;20084;-71
2023/06/12 07:54:12;;;;;;;;;;;28.50;91.10;;;;;;5052549;28;20015;-72
2023/06/12 07:56:39;;;;;;;;;;;28.90;91.10;;;;;;5043210;28;19948;-71
2023/06/12 07:59:09;;;;;;;;;;;29.10;90.10;;;;;;5014496;28;20297;-70
2023/06/12 08:01:36;;;;;;;;;;;29.50;90.90;;;;;;5032891;28;20424;-71
2023/06/12 08:04:03;;;;;;;;;;;29.90;90.20;;;;;;5033213;28;20376;-69
2023/06/12 08:06:32;;;;;;;;;;;30.10;88.40;;;;;;5033053;28;19925;-70
2023/06/12 08:08:58;;;;;;;;;;;30.30;87.00;;;;;;5034628;28;20455;-71
2023/06/12 08:11:25;;;;;;;;;;;30.50;87.40;;;;;;5052256;28;20398;-71
2023/06/12 08:13:51;;;;;;;;;;;30.70;89.00;;;;;;5041740;28;20392;-69
2023/06/12 08:16:17;;;;;;;;;;;30.90;87.10;;;;;;5015524;28;19925;-70
2023/06/12 08:18:42;;;;;;;;;;;31.00;86.40;;;;;;5032370;28;19931;-70
2023/06/12 08:21:08;;;;;;;;;;;31.10;85.80;;;;;;5039960;28;19929;-69
2023/06/12 08:23:34;;;;;;;;;;;31.40;87.00;;;;;;5051598;28;20304;-70
2023/06/12 08:26:00;;;;;;;;;;;31.50;87.10;;;;;;5034092;28;19925;-70
2023/06/12 08:28:25;;;;;;;;;;;31.90;85.40;;;;;;5052525;28;20027;-71
2023/06/12 08:30:52;;;;;;;;;;;31.90;86.10;;;;;;5044833;28;20011;-69
2023/06/12 08:33:20;;;;;;;;;;;32.80;83.30;;;;;;5038283;28;19925;-71
2023/06/12 08:35:46;;;;;;;;;;;32.10;84.10;;;;;;5014849;28;19968;-70
2023/06/12 08:38:12;;;;;;;;;;;32.20;82.50;;;;;;5032170;28;19929;-70
2023/06/12 08:40:37;;;;;;;;;;;32.40;81.60;;;;;;5014173;28;19947;-74
2023/06/12 08:43:04;;;;;;;;;;;32.30;80.60;;;;;;5014086;28;19925;-74
2023/06/12 08:45:29;;;;;;;;;;;32.20;82.10;;;;;;5016111;28;20400;-73
2023/06/12 08:47:55;;;;;;;;;;;32.30;84.70;;;;;;5032789;28;19935;-71
2023/06/12 08:50:21;;;;;;;;;;;32.70;83.80;;;;;;5050852;28;20291;-71
2023/06/12 08:52:47;;;;;;;;;;;32.90;81.90;;;;;;5034461;28;19931;-70
2023/06/12 08:55:16;;;;;;;;;;;33.00;81.80;;;;;;5033755;28;20479;-71
2023/06/12 08:57:45;;;;;;;;;;;32.80;80.60;;;;;;5052622;28;19979;-70
2023/06/12 09:00:14;;;;;;;;;;;32.60;80.70;;;;;;5034429;28;20369;-71
2023/06/12 09:02:45;;;;;;;;;;;32.90;80.60;;;;;;5024622;28;19932;-71
2023/06/12 09:05:15;;;;;;;;;;;32.90;80.00;;;;;;5046510;28;19924;-71
2023/06/12 09:07:43;;;;;;;;;;;32.80;80.50;;;;;;5017371;28;19932;-71
2023/06/12 09:10:09;;;;;;;;;;;32.70;79.30;;;;;;5013978;28;20363;-71
2023/06/12 09:12:34;;;;;;;;;;;33.00;79.00;;;;;;5050186;28;20055;-71
2023/06/12 09:15:00;;;;;;;;;;;32.80;79.90;;;;;;5050343;28;19947;-71
2023/06/12 09:17:28;;;;;;;;;;;33.10;81.60;;;;;;5047988;28;20020;-71
2023/06/12 09:19:54;;;;;;;;;;;33.20;79.30;;;;;;5035671;28;19929;-73
2023/06/12 09:22:21;;;;;;;;;;;33.40;79.10;;;;;;5047795;28;19921;-73
2023/06/12 09:24:47;;;;;;;;;;;33.60;76.30;;;;;;5037626;28;20031;-73
2023/06/12 09:27:12;;;;;;;;;;;33.60;77.80;;;;;;5056025;28;20353;-72
2023/06/12 09:29:45;;;;;;;;;;;33.30;77.90;;;;;;5055159;28;19963;-74
2023/06/12 09:32:15;;;;;;;;;;;33.00;77.90;;;;;;5051897;28;19932;-74
2023/06/12 09:34:46;;;;;;;;;;;32.80;75.40;;;;;;5039624;28;20383;-71
2023/06/12 09:37:14;;;;;;;;;;;32.70;77.50;;;;;;5016702;28;19931;-71
2023/06/12 09:39:39;;;;;;;;;;;32.60;77.40;;;;;;5018039;28;19921;-72
2023/06/12 09:42:06;;;;;;;;;;;32.60;79.40;;;;;;5017730;28;19929;-72
2023/06/12 09:44:31;;;;;;;;;;;32.90;79.80;;;;;;5034670;28;19929;-72
2023/06/12 09:47:01;;;;;;;;;;;33.00;77.10;;;;;;5036085;28;19978;-71
2023/06/12 09:49:26;;;;;;;;;;;33.10;76.30;;;;;;5043641;28;19924;-71
2023/06/12 09:51:53;;;;;;;;;;;33.10;76.40;;;;;;5020721;28;20040;-72
2023/06/12 09:54:19;;;;;;;;;;;33.40;77.90;;;;;;5035395;28;19971;-72
2023/06/12 09:56:45;;;;;;;;;;;33.30;77.50;;;;;;5035102;28;19925;-72
2023/06/12 09:59:16;;;;;;;;;;;33.60;77.90;;;;;;5043157;28;19975;-72
2023/06/12 10:01:46;;;;;;;;;;;33.70;77.30;;;;;;5017375;28;19929;-71
2023/06/12 10:04:12;;;;;;;;;;;33.70;76.80;;;;;;5038558;28;19933;-72
2023/06/12 10:06:38;;;;;;;;;;;33.80;77.30;;;;;;5017437;28;20400;-72
2023/06/12 10:09:06;;;;;;;;;;;33.60;75.60;;;;;;5034778;28;19994;-72
2023/06/12 10:11:31;;;;;;;;;;;33.80;74.80;;;;;;5020158;28;19926;-72
2023/06/12 10:13:58;;;;;;;;;;;33.90;73.30;;;;;;5048384;28;19935;-73
2023/06/12 10:16:25;;;;;;;;;;;33.50;73.30;;;;;;5037016;28;19933;-73
2023/06/12 10:18:51;;;;;;;;;;;33.70;72.90;;;;;;5036064;28;20272;-72
2023/06/12 10:21:19;;;;;;;;;;;33.40;76.70;;;;;;5050658;28;19926;-74
2023/06/12 10:23:45;;;;;;;;;;;33.70;76.60;;;;;;5036568;28;20012;-72
2023/06/12 10:26:11;;;;;;;;;;;33.30;74.90;;;;;;5014840;28;20024;-73
2023/06/12 10:28:36;;;;;;;;;;;33.60;77.20;;;;;;5033936;28;19987;-71
2023/06/12 10:31:12;;;;;;;;;;;33.90;77.30;;;;;;5020294;28;19925;-72
2023/06/12 10:36:16;;;;;;;;;;;34.30;74.30;;;;;;5627639;22;19933;-70
2023/06/12 10:38:46;;;;;;;;;;;34.20;72.80;;;;;;5034610;28;19929;-70
2023/06/12 10:41:12;;;;;;;;;;;34.60;75.10;;;;;;5016611;28;20292;-70
2023/06/12 10:43:39;;;;;;;;;;;34.50;71.30;;;;;;5029363;28;19926;-70
2023/06/12 10:46:10;;;;;;;;;;;34.50;72.90;;;;;;5016494;28;19983;-71
2023/06/12 10:48:45;;;;;;;;;;;35.10;75.30;;;;;;5015719;28;19972;-71
2023/06/12 10:51:11;;;;;;;;;;;34.60;71.90;;;;;;5033896;28;19925;-71
2023/06/12 10:53:42;;;;;;;;;;;34.70;69.90;;;;;;5033779;28;19932;-71
2023/06/12 10:56:08;;;;;;;;;;;34.60;73.30;;;;;;5015697;28;19928;-69
2023/06/12 10:58:35;;;;;;;;;;;34.60;73.00;;;;;;5049056;28;20031;-72
2023/06/12 11:01:02;;;;;;;;;;;34.40;71.80;;;;;;5033322;28;19931;-72
2023/06/12 11:03:31;;;;;;;;;;;34.20;71.10;;;;;;5033753;28;20372;-71
2023/06/12 11:06:00;;;;;;;;;;;34.30;71.10;;;;;;5051174;28;19924;-71
2023/06/12 11:08:30;;;;;;;;;;;33.90;68.70;;;;;;5033392;28;19932;-72
2023/06/12 11:10:58;;;;;;;;;;;33.90;67.60;;;;;;5033479;28;19925;-72
2023/06/12 11:13:24;;;;;;;;;;;33.80;71.70;;;;;;5050763;28;20011;-72
2023/06/12 11:15:51;;;;;;;;;;;33.70;75.00;;;;;;5052624;28;20384;-71
2023/06/12 11:18:17;;;;;;;;;;;33.90;74.00;;;;;;5053343;28;20237;-72
2023/06/12 11:20:42;;;;;;;;;;;33.80;74.60;;;;;;5026716;28;20357;-71
2023/06/12 11:23:08;;;;;;;;;;;34.10;76.80;;;;;;5015102;28;19932;-72
2023/06/12 11:25:44;;;;;;;;;;;34.30;76.00;;;;;;5016142;28;20450;-71
2023/06/12 11:28:11;;;;;;;;;;;34.20;76.50;;;;;;5033475;28;19943;-71
2023/06/12 11:30:37;;;;;;;;;;;33.90;74.50;;;;;;5015969;28;19938;-71
2023/06/12 11:33:07;;;;;;;;;;;34.00;75.50;;;;;;5032790;28;19925;-71
2023/06/12 11:35:37;;;;;;;;;;;33.70;75.90;;;;;;5032116;28;20432;-71
2023/06/12 11:38:06;;;;;;;;;;;33.60;74.90;;;;;;5032603;28;19925;-71
2023/06/12 11:40:32;;;;;;;;;;;33.80;78.80;;;;;;5035502;28;19932;-71
2023/06/12 11:43:01;;;;;;;;;;;34.10;78.70;;;;;;5034358;28;19925;-71
2023/06/12 11:45:29;;;;;;;;;;;34.10;77.60;;;;;;5035238;28;19924;-71
2023/06/12 11:47:55;;;;;;;;;;;33.80;76.80;;;;;;5035167;28;19928;-71
2023/06/12 11:50:20;;;;;;;;;;;33.60;75.90;;;;;;5050591;28;20384;-71
2023/06/12 11:52:46;;;;;;;;;;;33.40;77.20;;;;;;5041369;28;19937;-71
2023/06/12 11:55:12;;;;;;;;;;;33.50;78.50;;;;;;5049729;28;20301;-72
2023/06/12 11:57:38;;;;;;;;;;;33.60;76.80;;;;;;5052310;28;19964;-72
2023/06/12 12:00:16;;;;;;;;;;;33.40;76.50;;;;;;5053028;28;19931;-71
2023/06/12 12:02:49;;;;;;;;;;;33.40;75.60;;;;;;5034848;28;19925;-72
2023/06/12 12:05:17;;;;;;;;;;;33.60;77.80;;;;;;5051997;28;20381;-71
2023/06/12 12:07:45;;;;;;;;;;;33.30;78.00;;;;;;5035093;28;19928;-71
2023/06/12 12:10:11;;;;;;;;;;;33.40;77.10;;;;;;5047342;28;19925;-72
2023/06/12 12:12:50;;;;;;;;;;;33.60;80.30;;;;;;5034270;28;20344;-71
2023/06/12 12:15:17;;;;;;;;;;;33.70;76.10;;;;;;5034792;28;19925;-71
2023/06/12 12:17:43;;;;;;;;;;;33.60;77.30;;;;;;5034216;28;20019;-71
2023/06/12 12:20:15;;;;;;;;;;;33.20;77.40;;;;;;5021475;28;19925;-71
2023/06/12 12:22:41;;;;;;;;;;;33.50;79.20;;;;;;5011670;28;19925;-71
2023/06/12 12:25:07;;;;;;;;;;;33.40;78.00;;;;;;5031780;28;19925;-72
2023/06/12 12:27:33;;;;;;;;;;;33.40;76.60;;;;;;5014470;28;19926;-71
2023/06/12 12:29:59;;;;;;;;;;;33.30;77.50;;;;;;5032503;28;19926;-71
2023/06/12 12:32:25;;;;;;;;;;;33.50;75.20;;;;;;5014039;28;19959;-72
2023/06/12 12:34:51;;;;;;;;;;;33.30;76.10;;;;;;5013825;28;19921;-73
2023/06/12 12:37:16;;;;;;;;;;;33.10;77.70;;;;;;5031773;28;20275;-72
2023/06/12 12:39:42;;;;;;;;;;;33.30;79.10;;;;;;5032321;28;20403;-72
2023/06/12 12:42:07;;;;;;;;;;;33.20;80.30;;;;;;5031825;28;19936;-71
2023/06/12 12:44:33;;;;;;;;;;;33.10;78.20;;;;;;5031795;28;19931;-71
2023/06/12 12:46:58;;;;;;;;;;;33.10;80.50;;;;;;5033561;28;19931;-70
2023/06/12 12:49:24;;;;;;;;;;;32.90;80.00;;;;;;5034752;28;20039;-72
2023/06/12 12:51:49;;;;;;;;;;;33.10;80.50;;;;;;5035627;28;20296;-78
2023/06/12 12:54:15;;;;;;;;;;;33.10;80.80;;;;;;5035171;28;19932;-76
2023/06/12 12:56:44;;;;;;;;;;;33.20;81.20;;;;;;5036357;28;20335;-74
2023/06/12 12:59:09;;;;;;;;;;;33.10;79.30;;;;;;5035937;28;19929;-73
2023/06/12 13:01:35;;;;;;;;;;;33.00;81.10;;;;;;5036084;28;19925;-74
2023/06/12 13:04:00;;;;;;;;;;;33.00;80.20;;;;;;5034105;28;20384;-75
2023/06/12 13:06:29;;;;;;;;;;;32.90;80.10;;;;;;5018759;28;19925;-80
2023/06/12 13:08:55;;;;;;;;;;;32.70;85.30;;;;;;5037015;28;19979;-79
2023/06/12 13:11:20;;;;;;;;;;;32.50;87.60;;;;;;5017979;28;19925;-79
2023/06/12 13:13:46;;;;;;;;;;;32.60;86.60;;;;;;5093124;23;20063;-70
2023/06/12 13:16:12;;;;;;;;;;;32.40;86.80;;;;;;5048907;28;20292;-73
2023/06/12 13:18:37;;;;;;;;;;;32.20;86.70;;;;;;5055234;28;19972;-74
2023/06/12 13:21:03;;;;;;;;;;;32.10;87.10;;;;;;5054972;28;19933;-76
2023/06/12 13:23:28;;;;;;;;;;;32.00;87.60;;;;;;5053236;28;20347;-76
2023/06/12 13:25:54;;;;;;;;;;;32.00;88.30;;;;;;5054920;28;19979;-75
2023/06/12 13:28:21;;;;;;;;;;;32.00;87.30;;;;;;5055124;28;20357;-76
2023/06/12 13:30:47;;;;;;;;;;;32.00;88.60;;;;;;5055447;28;19947;-76
2023/06/12 13:33:13;;;;;;;;;;;32.00;87.20;;;;;;5046323;28;19925;-74
2023/06/12 13:35:38;;;;;;;;;;;32.10;87.80;;;;;;5054930;28;19995;-75
2023/06/12 13:38:05;;;;;;;;;;;31.90;87.70;;;;;;5054146;28;19936;-74
2023/06/12 13:40:30;;;;;;;;;;;31.80;87.50;;;;;;5057408;28;19925;-71
2023/06/12 13:42:56;;;;;;;;;;;31.70;88.10;;;;;;5057423;28;19932;-71
2023/06/12 13:45:21;;;;;;;;;;;31.60;87.60;;;;;;5057243;28;19978;-76
2023/06/12 13:47:47;;;;;;;;;;;31.50;87.80;;;;;;5056283;28;20284;-71
2023/06/12 13:50:12;;;;;;;;;;;31.50;88.20;;;;;;5052632;28;20015;-71
2023/06/12 13:52:41;;;;;;;;;;;31.30;88.10;;;;;;5054620;28;19932;-72
2023/06/12 13:55:07;;;;;;;;;;;31.30;89.00;;;;;;5054385;28;20291;-71
2023/06/12 13:57:33;;;;;;;;;;;31.30;90.20;;;;;;5052190;28;19929;-71
2023/06/12 13:59:58;;;;;;;;;;;31.10;90.00;;;;;;5044831;28;19925;-70
2023/06/12 14:02:24;;;;;;;;;;;30.90;89.00;;;;;;5040922;28;19937;-71
2023/06/12 14:04:51;;;;;;;;;;;30.90;89.70;;;;;;5051676;28;19925;-71
2023/06/12 14:07:17;;;;;;;;;;;30.80;90.20;;;;;;5052775;28;19929;-71
2023/06/12 14:09:43;;;;;;;;;;;30.90;90.20;;;;;;5053245;28;19983;-71
2023/06/12 14:12:08;;;;;;;;;;;30.80;89.50;;;;;;5053732;28;20323;-71
2023/06/12 14:14:34;;;;;;;;;;;30.60;90.20;;;;;;5053678;28;20024;-71
2023/06/12 14:17:00;;;;;;;;;;;30.60;89.70;;;;;;5053432;28;19925;-72
2023/06/12 14:19:26;;;;;;;;;;;30.50;90.00;;;;;;5052158;28;19924;-72
2023/06/12 14:21:52;;;;;;;;;;;30.50;90.10;;;;;;5052976;28;19936;-72
2023/06/12 14:24:18;;;;;;;;;;;30.30;89.90;;;;;;5054263;28;20703;-74
2023/06/12 14:26:43;;;;;;;;;;;29.90;89.30;;;;;;5052602;28;19929;-73
2023/06/12 14:29:09;;;;;;;;;;;29.90;90.00;;;;;;5051473;28;19932;-73
2023/06/12 14:31:34;;;;;;;;;;;29.70;90.60;;;;;;5040058;28;19932;-74
2023/06/12 14:34:00;;;;;;;;;;;29.70;90.40;;;;;;5051298;28;19948;-73
2023/06/12 14:36:25;;;;;;;;;;;29.80;90.60;;;;;;5054014;28;20011;-73
2023/06/12 14:38:51;;;;;;;;;;;29.80;90.40;;;;;;5051813;28;19925;-73
2023/06/12 14:41:16;;;;;;;;;;;29.90;90.10;;;;;;5052156;28;19932;-71
2023/06/12 14:43:42;;;;;;;;;;;30.10;90.10;;;;;;5054425;28;19925;-73
2023/06/12 14:46:08;;;;;;;;;;;30.10;89.20;;;;;;5051979;28;19928;-73
2023/06/12 14:48:34;;;;;;;;;;;30.20;90.20;;;;;;5049810;28;20261;-73
2023/06/12 14:51:00;;;;;;;;;;;30.20;89.50;;;;;;5045941;28;20028;-71
2023/06/12 14:53:26;;;;;;;;;;;30.40;89.80;;;;;;5048768;28;20446;-74